TimeCDT,TemperatureF,Dew PointF,Humidity,Sea Level PressureIn,VisibilityMPH,Wind Direction,Wind SpeedMPH,Gust SpeedMPH,PrecipitationIn,Events,Conditions,WindDirDegrees,DateUTC
12:53 AM,61.0,53.1,75,30.04,10.0,North,6.9,-,N/A,,Clear,10,2013-07-01 05:53:00
1:53 AM,60.1,53.1,78,30.04,10.0,North,8.1,-,N/A,,Clear,10,2013-07-01 06:53:00
2:53 AM,59.0,52.0,78,30.04,10.0,NNE,6.9,-,N/A,,Clear,20,2013-07-01 07:53:00
3:53 AM,57.9,51.1,78,30.05,10.0,NNE,5.8,-,N/A,,Clear,20,2013-07-01 08:53:00
4:53 AM,57.9,51.1,78,30.06,10.0,NNE,6.9,-,N/A,,Partly Cloudy,20,2013-07-01 09:53:00
5:53 AM,57.9,51.1,78,30.07,9.0,North,6.9,-,N/A,,Partly Cloudy,10,2013-07-01 10:53:00
6:53 AM,57.9,52.0,81,30.08,7.0,North,6.9,-,N/A,,Scattered Clouds,10,2013-07-01 11:53:00
7:53 AM,60.1,52.0,75,30.10,10.0,North,4.6,-,N/A,,Mostly Cloudy,10,2013-07-01 12:53:00
8:53 AM,63.0,54.0,72,30.11,10.0,North,6.9,-,N/A,,Mostly Cloudy,10,2013-07-01 13:53:00
9:53 AM,69.1,54.0,58,30.11,10.0,North,9.2,-,N/A,,Mostly Cloudy,360,2013-07-01 14:53:00
10:53 AM,73.0,55.0,53,30.11,10.0,North,8.1,-,N/A,,Mostly Cloudy,360,2013-07-01 15:53:00
11:53 AM,78.1,46.9,33,30.11,10.0,NNE,16.1,23.0,N/A,,Mostly Cloudy,30,2013-07-01 16:53:00
12:53 PM,79.0,48.9,35,30.10,10.0,NNE,15.0,24.2,N/A,,Mostly Cloudy,20,2013-07-01 17:53:00
1:53 PM,79.0,50.0,36,30.09,10.0,NNE,19.6,-,N/A,,Mostly Cloudy,20,2013-07-01 18:53:00
2:53 PM,81.0,48.9,33,30.08,10.0,NE,18.4,21.9,N/A,,Mostly Cloudy,40,2013-07-01 19:53:00
3:53 PM,82.0,48.9,31,30.07,10.0,NE,10.4,-,N/A,,Scattered Clouds,40,2013-07-01 20:53:00
4:53 PM,79.0,48.9,35,30.06,10.0,North,12.7,23.0,N/A,,Scattered Clouds,10,2013-07-01 21:53:00
5:53 PM,81.0,51.1,35,30.05,10.0,North,13.8,-,N/A,,Scattered Clouds,10,2013-07-01 22:53:00
6:53 PM,79.0,51.1,38,30.05,10.0,NNE,11.5,23.0,N/A,,Scattered Clouds,20,2013-07-01 23:53:00
7:53 PM,75.0,52.0,44,30.06,10.0,North,9.2,-,N/A,,Partly Cloudy,10,2013-07-02 00:53:00
8:53 PM,71.1,52.0,51,30.06,10.0,North,5.8,-,N/A,,Partly Cloudy,10,2013-07-02 01:53:00
9:53 PM,70.0,51.1,51,30.07,10.0,NNE,4.6,-,N/A,,Scattered Clouds,20,2013-07-02 02:53:00
10:53 PM,66.9,52.0,59,30.08,10.0,NNE,5.8,-,N/A,,Partly Cloudy,30,2013-07-02 03:53:00
11:53 PM,64.9,52.0,63,30.08,10.0,NNE,5.8,-,N/A,,Partly Cloudy,30,2013-07-02 04:53:00